• Join FlightAware (Why Join?)
  • Login
  • US Flag 
07:02AM EDT


 

Airport Tracker/Info


-or-


 

Live Flight TrackerFlight Track Log ✈ DLH2991 ✈ 31-Jan-2014 ✈ UUWW / VKO - EDDL / DUS

Flight Track Log - Related Links

Times and Time Zones

All times are in EST time to prevent confusion due to time zone crossing. See the DLH2991 flight status page for this flight to view local times or setup timezone preferences in your user account.

Time Position Orientation Groundspeed Altitude Reporting Facility
EST Latitude Longitude Course Direction KTS MPH feet Rate Location/Type
09:31AM 55.7126 36.6063 269° West  Level Estimated
09:32AM 55.7096 36.4197 268° West  Level Estimated
09:33AM 55.7062 36.2332 268° West  Level Estimated
09:34AM 55.7026 36.0467 268° West  Level Estimated
09:35AM 55.6987 35.8602 268° West  Level Estimated
09:36AM 55.6945 35.6738 268° West  Level Estimated
09:37AM 55.6901 35.4874 268° West  Level Estimated
09:38AM 55.6853 35.3011 267° West  Level Estimated
09:39AM 55.6803 35.1148 267° West  Level Estimated
09:40AM 55.6750 34.9286 267° West  Level Estimated
09:41AM 55.6694 34.7424 267° West  Level Estimated
09:42AM 55.6635 34.5562 267° West  Level Estimated
09:43AM 55.6573 34.3702 267° West  Level Estimated
09:44AM 55.6509 34.1841 267° West  Level Estimated
09:45AM 55.6442 33.9982 266° West  Level Estimated
09:46AM 55.6372 33.8123 266° West  Level Estimated
09:47AM 55.6299 33.6265 266° West  Level Estimated
09:48AM 55.6223 33.4407 266° West  Level Estimated
09:49AM 55.6145 33.2550 266° West  Level Estimated
09:50AM 55.6064 33.0694 266° West  Level Estimated
09:51AM 55.5980 32.8839 265° West  Level Estimated
09:52AM 55.5893 32.6984 265° West  Level Estimated
09:53AM 55.5803 32.5131 265° West  Level Estimated
09:54AM 55.5711 32.3278 265° West  Level Estimated
09:55AM 55.5616 32.1426 265° West  Level Estimated
09:56AM 55.5518 31.9575 265° West  Level Estimated
09:56AM 55.6908 31.8523 265° West 406 467 36,000  Level FlightAware ADS-B (EVDA / DGP)
09:57AM 55.6670 31.6450 259° West 409 471 35,900  Descending FlightAware ADS-B (EVDA / DGP)
09:58AM 55.6433 31.4432 258° West 413 475 36,000  Climbing FlightAware ADS-B (EVDA / DGP)
09:59AM 55.6230 31.2730 258° West 416 479 36,000  Level FlightAware ADS-B (EVDA / DGP)
10:00AM 55.5948 31.0414 258° West 416 479 36,000  Level FlightAware ADS-B (EVDA / DGP)
10:01AM 55.5675 30.8465 256° West 418 481 36,000  Level FlightAware ADS-B (EVDA / DGP)
10:02AM 55.5366 30.6474 255° West 414 476 36,000  Level FlightAware ADS-B (EVDA / DGP)
10:03AM 55.5076 30.4635 255° West 410 472 36,000  Level FlightAware ADS-B (EVDA / DGP)
10:04AM 55.4794 30.2806 255° West 408 470 36,000  Level FlightAware ADS-B (EVDA / DGP)
10:05AM 55.4493 30.0831 255° West 408 470 36,000  Level FlightAware ADS-B (EVDA / DGP)
10:06AM 55.4174 29.8776 255° West 407 468 36,000  Level FlightAware ADS-B (EVDA / DGP)
10:08AM 55.3575 29.4965 263° West 410 472 36,000  Level FlightAware ADS-B (EVDA / DGP)
10:09AM 55.3267 29.3048 254° West 413 475 36,000  Level FlightAware ADS-B (EVDA / DGP)
10:10AM 55.2952 29.1102 254° West 415 478 36,000  Level FlightAware ADS-B (EVDA / DGP)
10:11AM 55.2643 28.9214 254° West 413 475 36,000  Level FlightAware ADS-B (EVDA / DGP)
10:12AM 55.2326 28.7302 254° West 411 473 36,000  Level FlightAware ADS-B (EVDA / DGP)
10:13AM 55.2007 28.5397 254° West 411 473 36,000  Level FlightAware ADS-B (EVDA / DGP)
10:14AM 55.1684 28.3491 254° West 410 472 36,000  Level FlightAware ADS-B (EVDA / DGP)
10:15AM 55.1351 28.1545 253° West 408 470 36,000  Level FlightAware ADS-B (EVDA / DGP)
10:16AM 55.1026 27.9670 253° West 403 464 36,000  Level FlightAware ADS-B (EVDA / DGP)
10:17AM 55.0719 27.7922 253° West 401 461 36,000  Level FlightAware ADS-B (EVDA / DGP)
10:18AM 55.0379 27.5975 253° West 402 463 36,000  Level FlightAware ADS-B (EVDA / DGP)
10:19AM 55.0051 27.4122 253° West 406 467 36,000  Level FlightAware ADS-B (EVDA / DGP)
10:20AM 54.9710 27.2230 253° West 409 471 36,000  Level FlightAware ADS-B (EVDA / DGP)
10:21AM 54.9374 27.0374 253° West 410 472 36,000  Level FlightAware ADS-B (EVDA / DGP)
10:22AM 54.9028 26.8486 252° West 409 471 36,000  Level FlightAware ADS-B (EVDA / DGP)
10:23AM 54.8692 26.6678 252° West 407 468 36,000  Level FlightAware ADS-B (EVDA / DGP)
10:23AM 54.8456 26.5419 252° West 407 468 36,000  Level FlightAware ADS-B (EPSY / SZY)
10:24AM 54.8133 26.3700 252° West 407 468 36,000  Level FlightAware ADS-B (EPSY / SZY)
10:25AM 54.7903 26.2488 252° West 408 470 36,000  Level FlightAware ADS-B (EPSY / SZY)
10:26AM 54.7717 26.1510 252° West 408 470 36,000  Level FlightAware ADS-B (EPSY / SZY)
10:26AM 54.7451 26.0126 252° West 407 468 36,000  Level FlightAware ADS-B (EPSY / SZY)
10:27AM 54.7219 25.8928 252° West 406 467 36,000  Level FlightAware ADS-B (EPSY / SZY)
10:28AM 54.6980 25.7692 251° West 405 466 36,000  Level FlightAware ADS-B (EPSY / SZY)
10:28AM 54.6736 25.6471 251° West 406 467 36,000  Level FlightAware ADS-B (EPSY / SZY)
10:29AM 54.6461 25.5118 251° West 405 466 36,000  Level FlightAware ADS-B (EPSY / SZY)
10:30AM 54.6226 25.3969 251° West 405 466 36,000  Level FlightAware ADS-B (EPSY / SZY)
10:30AM 54.5945 25.2598 251° West 407 468 36,000  Level FlightAware ADS-B (EPSY / SZY)
10:31AM 54.5625 25.1058 250° West 410 472 36,000  Level FlightAware ADS-B (SVMI / CCS)
10:32AM 54.5432 25.0127 250° West 410 472 36,000  Level FlightAware ADS-B (EPSY / SZY)
10:32AM 54.5234 24.9181 250° West 410 472 36,000  Level FlightAware ADS-B (SVMI / CCS)
10:33AM 54.5039 24.8255 250° West 409 471 36,000  Level FlightAware ADS-B (EVDA / DGP)
10:33AM 54.4824 24.7240 250° West 407 468 36,000  Level FlightAware ADS-B (EPSY / SZY)
10:34AM 54.4616 24.6253 250° West 407 468 36,000  Level FlightAware ADS-B (EPSY / SZY)
10:34AM 54.4348 24.4999 250° West 405 466 36,000  Level FlightAware ADS-B (EPSY / SZY)
10:35AM 54.4134 24.3998 250° West 403 464 36,000  Level FlightAware ADS-B (SVMI / CCS)
10:36AM 54.3877 24.2817 250° West 402 463 36,000  Level FlightAware ADS-B (SVMI / CCS)
10:36AM 54.3691 24.1956 250° West 401 461 36,000  Level FlightAware ADS-B (EPSY / SZY)
10:37AM 54.3501 24.1084 250° West 401 461 36,000  Level FlightAware ADS-B (SVMI / CCS)
10:37AM 54.3229 23.9840 249° West 403 464 36,000  Level FlightAware ADS-B (SVMI / CCS)
10:38AM 54.2971 23.8669 249° West 405 466 36,000  Level FlightAware ADS-B (SVMI / CCS)
10:39AM 54.2720 23.7535 249° West 407 468 36,000  Level FlightAware ADS-B (EPSY / SZY)
10:39AM 54.2446 23.6300 249° West 407 468 36,000 60 Level FlightAware ADS-B (EPSY / SZY)
10:40AM 54.2167 23.5057 249° West 403 464 36,100  Climbing FlightAware ADS-B (SVMI / CCS)
10:41AM 54.1905 23.3897 249° West 399 459 36,000 -120 Descending FlightAware ADS-B (EVDA / DGP)
10:41AM 54.1692 23.3006 248° West 398 458 36,000  Level FlightAware ADS-B (EPSY / SZY)
10:42AM 54.1494 23.1599 257° West 394 453 36,000  Level FlightAware ADS-B (SVMI / CCS)
10:43AM 54.1364 23.0338 260° West 394 453 36,000  Level FlightAware ADS-B (EVDA / DGP)
10:43AM 54.1230 22.9046 260° West 394 453 36,000  Level FlightAware ADS-B (EPSY / SZY)
10:44AM 54.1214 22.8879 260° West 394 453 36,000 60 Level FlightAware ADS-B (SVMI / CCS)
10:45AM 54.0980 22.6637 260° West 390 449 36,100  Climbing FlightAware ADS-B (EVDA / DGP)
10:45AM 54.0859 22.5491 260° West 388 447 36,000 -120 Descending FlightAware ADS-B (EPSY / SZY)
10:46AM 54.0727 22.4263 260° West 385 443 36,000  Level FlightAware ADS-B (EPSY / SZY)
10:47AM 54.0600 22.3076 260° West 386 444 36,000  Level FlightAware ADS-B (EVDA / DGP)
10:47AM 54.0466 22.1853 260° West 390 449 36,000  Level FlightAware ADS-B (EPSY / SZY)
10:48AM 54.0516 22.2315 80° East 390 449 36,000  Level FlightAware ADS-B (SVMI / CCS)
10:48AM 54.0270 22.0072 259° West 391 450 36,000  Level FlightAware ADS-B (EPSY / SZY)
10:49AM 54.0102 21.8574 259° West 392 451 36,000  Level FlightAware ADS-B (EPSY / SZY)
10:50AM 53.9963 21.7339 259° West 391 450 36,000  Level FlightAware ADS-B (EPSY / SZY)
10:51AM 53.9833 21.6208 259° West 390 449 36,000  Level FlightAware ADS-B (EPSY / SZY)
10:51AM 53.9687 21.4934 259° West 391 450 36,000  Level FlightAware ADS-B (EPSY / SZY)
10:52AM 53.9575 21.3970 259° West 391 450 36,000  Level FlightAware ADS-B (SVMI / CCS)
10:52AM 53.9474 21.3092 259° West 393 452 36,000  Level FlightAware ADS-B (EPSY / SZY)
10:53AM 53.9330 21.1875 259° West 396 456 36,000  Level FlightAware ADS-B (EPSY / SZY)
10:54AM 53.9187 21.0672 259° West 398 458 36,000  Level FlightAware ADS-B (EPSY / SZY)
10:54AM 53.9054 20.9567 259° West 400 460 36,000  Level FlightAware ADS-B (EPSY / SZY)
10:55AM 53.9113 21.0062 79° East 401 461 36,000  Level FlightAware ADS-B (SVMI / CCS)
10:55AM 53.8790 20.7390 259° West 402 463 36,000  Level FlightAware ADS-B (EPWR / WRO)
10:56AM 53.8666 20.6379 258° West 403 464 36,000  Level FlightAware ADS-B (EPSY / SZY)
10:56AM 53.8533 20.5308 258° West 405 466 36,000  Level FlightAware ADS-B (EPWA / WAW)
10:57AM 53.8425 20.4445 258° West 406 467 36,000  Level FlightAware ADS-B (EPWR / WRO)
10:58AM 53.8273 20.3227 258° West 405 466 36,000  Level FlightAware ADS-B (EPSY / SZY)
10:58AM 53.8149 20.2247 258° West 404 465 36,000  Level FlightAware ADS-B (EPWA / WAW)
10:59AM 53.8032 20.1333 258° West 402 463 36,000  Level FlightAware ADS-B (EPSY / SZY)
10:59AM 53.7887 20.0205 258° West 402 463 36,000  Level FlightAware ADS-B (EPSY / SZY)
11:00AM 53.7760 19.9224 258° West 401 461 36,000  Level FlightAware ADS-B (EPWR / WRO)
11:00AM 53.7636 19.8268 258° West 401 461 36,000  Level FlightAware ADS-B (EPSY / SZY)
11:01AM 53.7488 19.7142 258° West 401 461 36,000  Level FlightAware ADS-B (EPWR / WRO)
11:01AM 53.7432 19.6719 257° West 398 458 36,000  Level FlightAware ADS-B (EPWA / WAW)
11:01AM 53.7381 19.6329 257° West 398 458 36,000  Level FlightAware ADS-B (EPWA / WAW)
11:02AM 53.7261 19.5425 257° West 399 459 36,000  Level FlightAware ADS-B (EPWR / WRO)
11:02AM 53.7111 19.4308 257° West 398 458 36,000  Level FlightAware ADS-B (EPWA / WAW)
11:03AM 53.6977 19.3309 257° West 401 461 36,000  Level FlightAware ADS-B (EPSY / SZY)
11:04AM 53.6833 19.2249 257° West 402 463 36,000  Level FlightAware ADS-B (EPWR / WRO)
11:04AM 53.6664 19.1017 257° West 404 465 36,000  Level FlightAware ADS-B (EPWR / WRO)
11:05AM 53.6526 19.0011 257° West 408 470 36,000 60 Level FlightAware ADS-B (EPWR / WRO)
11:06AM 53.6320 18.8521 257° West 409 471 36,100 60 Climbing FlightAware ADS-B (EPSY / SZY)
11:06AM 53.6208 18.7728 257° West 408 470 36,100 -120 Level FlightAware ADS-B (EPWR / WRO)
11:07AM 53.5998 18.6230 257° West 405 466 36,000  Descending FlightAware ADS-B (EPSY / SZY)
11:08AM 53.5832 18.5066 257° West 399 459 36,100 60 Climbing FlightAware ADS-B (EPSY / SZY)
11:08AM 53.5728 18.4339 257° West 393 452 36,100 600 Level FlightAware ADS-B (EPWR / WRO)
11:08AM 53.5623 18.3620 256° West 384 442 36,700 960 Climbing FlightAware ADS-B (EPWR / WRO)
11:09AM 53.5424 18.2247 256° West 383 441 37,300 720 Climbing FlightAware ADS-B (EPSY / SZY)
11:10AM 53.5281 18.1274 256° West 384 442 37,600 480 Climbing FlightAware ADS-B (EDDT / TXL)
11:10AM 53.5131 18.0256 256° West 392 451 37,900 300 Climbing FlightAware ADS-B (EPSY / SZY)
11:11AM 53.4946 17.8992 256° West 399 459 38,000 60 Climbing FlightAware ADS-B (EPSY / SZY)
11:11AM 53.4819 17.8136 256° West 401 461 38,000  Level FlightAware ADS-B (EPSY / SZY)
11:12AM 53.4672 17.7162 256° West 403 464 38,000  Level FlightAware ADS-B (EDDT / TXL)
11:13AM 53.4473 17.5839 256° West 404 465 38,000  Level FlightAware ADS-B (EPSY / SZY)
11:13AM 53.4287 17.4611 256° West 404 465 38,000  Level FlightAware ADS-B (EPSY / SZY)
11:14AM 53.4177 17.3896 256° West 403 464 38,000  Level FlightAware ADS-B (EDDT / TXL)
11:15AM 53.4017 17.2854 256° West 402 463 38,000  Level FlightAware ADS-B (EPSY / SZY)
11:15AM 53.3897 17.2084 255° West 400 460 38,000  Level FlightAware ADS-B (EPSY / SZY)
11:16AM 53.3657 17.0538 255° West 399 459 38,000  Level FlightAware ADS-B (EDDT / TXL)
11:16AM 53.3445 16.9196 255° West 399 459 38,000  Level FlightAware ADS-B (EDDT / TXL)
11:17AM 53.3244 16.7924 255° West 399 459 38,000  Level FlightAware ADS-B (EDDT / TXL)
11:18AM 53.3062 16.6780 255° West 401 461 38,000  Level FlightAware ADS-B (EDDT / TXL)
11:18AM 53.2904 16.5540 258° West 403 464 38,000  Level FlightAware ADS-B (EDDT / TXL)
11:19AM 53.2755 16.4390 258° West 403 464 38,000  Level FlightAware ADS-B (EPZG / IEG)
11:20AM 53.2600 16.3204 258° West 402 463 38,000  Level FlightAware ADS-B (EPZG / IEG)
11:20AM 53.2478 16.2277 258° West 403 464 38,000  Level FlightAware ADS-B (EPZG / IEG)
11:21AM 53.2275 16.0742 258° West 402 463 38,000  Level FlightAware ADS-B (EPZG / IEG)
11:22AM 53.2133 15.9678 257° West 401 461 38,000  Level FlightAware ADS-B (EPZG / IEG)
11:22AM 53.1978 15.8530 257° West 400 460 38,000  Level FlightAware ADS-B (EPZG / IEG)
11:23AM 53.1813 15.7310 257° West 399 459 38,000  Level FlightAware ADS-B (ESMN)
11:24AM 53.1665 15.6218 257° West 399 459 38,000  Level FlightAware ADS-B (ESMN)
11:24AM 53.1549 15.5373 257° West 399 459 38,000  Level FlightAware ADS-B (EPZG / IEG)
11:25AM 53.1335 15.3845 257° West 399 459 38,000  Level FlightAware ADS-B (ESMN)
11:26AM 53.1188 15.2781 257° West 399 459 38,000  Level FlightAware ADS-B (EPWR / WRO)
11:26AM 53.1088 15.2072 257° West 399 459 38,000  Level FlightAware ADS-B (EPZG / IEG)
11:27AM 53.0900 15.0736 257° West 400 460 38,000  Level FlightAware ADS-B (EPWR / WRO)
11:27AM 53.0763 14.9772 257° West 403 464 38,000  Level FlightAware ADS-B (ESMN)
11:28AM 53.0636 14.8885 257° West 405 466 38,000  Level FlightAware ADS-B (ESMN)
11:28AM 53.0451 14.7594 257° West 408 470 38,000  Level FlightAware ADS-B (ESMN)
11:29AM 53.0273 14.6385 256° West 408 470 38,000  Level FlightAware ADS-B (ESMN)
11:30AM 53.0089 14.5126 256° West 408 470 38,000  Level FlightAware ADS-B (ESMN)
11:30AM 52.9927 14.4037 256° West 407 468 38,000  Level FlightAware ADS-B (EPZG / IEG)
11:31AM 52.9736 14.2751 256° West 407 468 38,000  Level FlightAware ADS-B (EPZG / IEG)
11:32AM 52.9603 14.1861 256° West 407 468 38,000  Level FlightAware ADS-B (EPWR / WRO)
11:32AM 52.9405 14.0558 256° West 407 468 38,000  Level FlightAware ADS-B (ESMN)
11:33AM 52.9203 13.9232 256° West 406 467 38,000  Level FlightAware ADS-B (ESMN)
11:34AM 52.9025 13.8062 256° West 404 465 38,000  Level FlightAware ADS-B (ESMN)
11:34AM 52.8842 13.6884 256° West 404 465 38,000  Level FlightAware ADS-B (ESMN)
11:35AM 52.8735 13.6201 255° West 404 465 38,000  Level FlightAware ADS-B (EDDT / TXL)
11:35AM 52.8532 13.4905 256° West 403 464 38,000  Level FlightAware ADS-B (EPWR / WRO)
11:36AM 52.8378 13.3920 256° West 402 463 38,000  Level FlightAware ADS-B (EPZG / IEG)
11:37AM 52.8165 13.2579 255° West 404 465 38,000  Level FlightAware ADS-B (ESMN)
11:37AM 52.7976 13.1397 255° West 406 467 38,000  Level FlightAware ADS-B (ESMN)
11:38AM 52.7779 13.0171 255° West 407 468 38,000  Level FlightAware ADS-B (EPWR / WRO)
11:39AM 52.7643 12.9325 255° West 408 470 38,000  Level FlightAware ADS-B (ESMN)
11:39AM 52.7421 12.7969 255° West 410 472 38,000  Level FlightAware ADS-B (EDDT / TXL)
11:40AM 52.7165 12.6407 255° West 412 474 38,000  Level FlightAware ADS-B (EDDT / TXL)
11:41AM 52.6998 12.5406 255° West 414 476 38,000  Level FlightAware ADS-B (EDDT / TXL)
11:41AM 52.6793 12.4165 255° West 416 479 38,000  Level FlightAware ADS-B (EDDT / TXL)
11:42AM 52.6569 12.2835 255° West 417 480 38,000  Level FlightAware ADS-B (EDDT / TXL)
11:43AM 52.6361 12.1606 254° West 418 481 38,000 60 Level FlightAware ADS-B (EDDT / TXL)
11:43AM 52.6148 12.0358 254° West 417 480 38,100  Climbing FlightAware ADS-B (EDDT / TXL)
11:44AM 52.5941 11.9153 254° West 416 479 38,000 -120 Descending FlightAware ADS-B (EDDT / TXL)
11:45AM 52.5738 11.7986 254° West 415 478 38,000  Level FlightAware ADS-B (EDDT / TXL)
11:45AM 52.5555 11.6935 254° West 413 475 38,000  Level FlightAware ADS-B (ESMN)
11:46AM 52.5336 11.5684 254° West 416 479 38,000  Level FlightAware ADS-B (ESMN)
11:47AM 52.5090 11.4278 254° West 417 480 38,000  Level FlightAware ADS-B (EDDT / TXL)
11:47AM 52.4877 11.3077 254° West 414 476 38,000  Level FlightAware ADS-B (EDDT / TXL)
11:48AM 52.4687 11.2016 254° West 410 472 38,000  Level FlightAware ADS-B (ESMN)
11:49AM 52.4479 11.0859 254° West 407 468 38,000  Level FlightAware ADS-B (ESMN)
11:49AM 52.4253 10.9615 253° West 402 463 38,000  Level FlightAware ADS-B (ESMN)
11:50AM 52.4168 10.9150 253° West 404 465 38,000  Level FlightAware ADS-B (EDDT / TXL)
11:50AM 52.3991 10.8175 253° West 401 461 38,000  Level FlightAware ADS-B (EDLW / DTM)
11:51AM 52.3787 10.7062 253° West 399 459 38,000  Level FlightAware ADS-B (ESMN)
11:51AM 52.3589 10.5995 253° West 402 463 38,000  Level FlightAware ADS-B (EDDT / TXL)
11:52AM 52.3385 10.4894 253° West 404 465 38,000  Level FlightAware ADS-B (EDDT / TXL)
11:53AM 52.3163 10.3702 253° West 407 468 38,000  Level FlightAware ADS-B (EDDT / TXL)
11:53AM 52.2965 10.2654 253° West 407 468 38,000  Level FlightAware ADS-B (ESMN)
11:54AM 52.2761 10.1569 253° West 407 468 38,000 -420 Level FlightAware ADS-B (ESMN)
11:55AM 52.2531 10.0363 253° West 407 468 37,500 -1,260 Descending FlightAware ADS-B (ESMN)
11:55AM 52.2280 9.9052 253° West 416 479 36,300 -1,440 Descending FlightAware ADS-B (EDDT / TXL)
11:56AM 52.2104 9.8143 253° West 417 480 35,600 -1,380 Descending FlightAware ADS-B (EDLW / DTM)
11:57AM 52.2032 9.7765 253° West 412 474 34,800 -1,560 Descending FlightAware ADS-B (EDLW / DTM)
11:57AM 52.1597 9.5529 253° West 420 483 33,400 -1,680 Descending FlightAware ADS-B (EDLW / DTM)
11:58AM 52.1389 9.4471 252° West 417 480 32,400 -1,860 Descending FlightAware ADS-B (ESMN)
11:59AM 52.1228 9.3659 252° West 415 478 31,500 -1,920 Descending FlightAware ADS-B (EDLW / DTM)
11:59AM 52.0970 9.2363 252° West 405 466 30,100 -2,040 Descending FlightAware ADS-B (EDLW / DTM)
12:00PM 52.0781 9.1414 252° West 396 456 29,000 -1,920 Descending FlightAware ADS-B (ESMN)
12:00PM 52.0581 9.0417 252° West 392 451 27,700 -1,980 Descending FlightAware ADS-B (EDLW / DTM)
12:01PM 52.0321 8.9126 252° West 386 444 26,300 -1,620 Descending FlightAware ADS-B (EDLW / DTM)
12:02PM 52.0129 8.8176 252° West 382 440 25,700 -960 Descending FlightAware ADS-B (EDLW / DTM)
12:02PM 51.9934 8.7219 252° West 381 438 25,100 -1,080 Descending FlightAware ADS-B (EDLW / DTM)
12:03PM 51.9690 8.5970 252° West 376 433 24,300 -1,200 Descending FlightAware ADS-B (EDLW / DTM)
12:04PM 51.9453 8.4818 252° West 371 427 23,500 -1,320 Descending FlightAware ADS-B (EDLW / DTM)
12:04PM 51.9118 8.3942 238° Southwest 363 418 22,500 -1,440 Descending FlightAware ADS-B (EDLW / DTM)
12:05PM 51.8793 8.3130 237° Southwest 355 409 21,700 -1,560 Descending FlightAware ADS-B (EDLW / DTM)
12:06PM 51.8408 8.2135 238° Southwest 354 407 20,500 -1,620 Descending FlightAware ADS-B (EDLW / DTM)
12:06PM 51.8184 8.1124 250° West 345 397 19,500 -1,440 Descending FlightAware ADS-B (EDLW / DTM)
12:07PM 51.8057 8.0142 258° West 332 382 18,500 -1,620 Descending FlightAware ADS-B (EDLW / DTM)
12:07PM 51.8049 8.0075 259° West 356 410 18,300 -1,680 Descending FlightAware ADS-B (EDKL)
12:08PM 51.7977 7.9531 258° West 324 373 17,900 -1,380 Descending FlightAware ADS-B (EDLW / DTM)
12:08PM 51.7872 7.8721 258° West 322 371 17,000 -1,620 Descending FlightAware ADS-B (EDLW / DTM)
12:09PM 51.7737 7.7665 258° West 317 365 15,800 -1,440 Descending FlightAware ADS-B (EDLW / DTM)
12:10PM 51.7636 7.6890 258° West 313 360 15,100 -1,080 Descending FlightAware ADS-B (EDLW / DTM)
12:10PM 51.7503 7.5878 258° West 307 353 14,400 -1,080 Descending FlightAware ADS-B (EDLW / DTM)
12:11PM 51.7459 7.5545 258° West 307 353 14,100 -1,020 Descending FlightAware ADS-B (EDLW / DTM)
12:11PM 51.7331 7.4570 258° West 303 349 13,400 -1,020 Descending FlightAware ADS-B (EDLW / DTM)
12:12PM 51.7203 7.3597 258° West 283 326 12,600 -1,020 Descending FlightAware ADS-B (EDLW / DTM)
12:13PM 51.7070 7.2611 258° West 262 302 11,800 -1,020 Descending FlightAware ADS-B (EDLW / DTM)
12:13PM 51.6980 7.1945 258° West 249 287 11,200 -1,080 Descending FlightAware ADS-B (EDLW / DTM)
12:14PM 51.6840 7.1239 252° West 229 264 10,400 -1,080 Descending FlightAware ADS-B (EDLW / DTM)
12:15PM 51.6548 7.0599 234° Southwest 216 249 9,700 -960 Descending FlightAware ADS-B (EDLW / DTM)
12:15PM 51.6438 7.0367 233° Southwest 213 245 9,300 -1,020 Descending FlightAware ADS-B (EDLW / DTM)
12:16PM 51.6317 7.0243 212° Southwest 216 249 9,000 -960 Descending FlightAware ADS-B (EDLW / DTM)
12:16PM 51.6171 7.0259 176° South 222 255 8,800 -1,200 Descending FlightAware ADS-B (EDLW / DTM)
12:16PM 51.5937 7.0524 145° Southeast 224 258 8,200 -1,380 Descending FlightAware ADS-B (EDLW / DTM)
12:17PM 51.5704 7.0703 154° Southeast 221 254 7,700 -1,380 Descending FlightAware ADS-B (EDLW / DTM)
12:17PM 51.5479 7.0864 156° South 218 251 7,200 -1,320 Descending FlightAware ADS-B (EDLW / DTM)
12:17PM 51.5357 7.0951 156° South 214 246 6,800 -1,200 Descending FlightAware ADS-B (EDLW / DTM)
12:18PM 51.5138 7.1106 156° South 211 243 6,400 -1,500 Descending FlightAware ADS-B (EDLW / DTM)
12:18PM 51.4910 7.1187 168° South 204 235 5,800 -1,320 Descending FlightAware ADS-B (EDLW / DTM)
12:18PM 51.4747 7.1096 199° South 201 231 5,500 -1,080 Descending FlightAware ADS-B (EDLW / DTM)
12:19PM 51.4579 7.0979 203° Southwest 199 229 5,000 -960 Descending FlightAware ADS-B (EDLW / DTM)
12:19PM 51.4372 7.0700 220° Southwest 190 219 4,600 -720 Descending FlightAware ADS-B (EDLW / DTM)
12:20PM 51.4232 7.0432 230° Southwest 173 199 4,400 -660 Descending FlightAware ADS-B (EDLW / DTM)
12:22PM 51.2961 6.7805 232° Southwest  Level Estimated
12:23PM 51.2895 6.7668 232° Southwest  Level Estimated
12:24PM 51.2895 6.7668 314° West  Level Estimated
12:25PM 51.2895 6.7668 314° West  Level Estimated
12:26PM 51.2895 6.7668 314° West  Level Estimated
12:27PM 51.2895 6.7668 314° West  Level Estimated
12:28PM 51.2895 6.7668 314° West  Level Estimated
12:29PM 51.2895 6.7668 314° West  Level Estimated